createdAt,value
2023-06-08T00:02:09.096Z,17.13
2023-06-08T00:04:43.155Z,16.95
2023-06-08T00:07:16.719Z,17.00
2023-06-08T00:09:47.771Z,17.00
2023-06-08T00:12:19.005Z,17.03
2023-06-08T00:14:49.844Z,17.00
2023-06-08T00:17:20.298Z,16.97
2023-06-08T00:19:55.988Z,16.97
2023-06-08T00:22:26.761Z,16.83
2023-06-08T00:24:56.783Z,16.80
2023-06-08T00:27:27.627Z,16.86
2023-06-08T00:30:00.179Z,16.88
2023-06-08T00:32:30.345Z,16.86
2023-06-08T00:35:00.270Z,16.83
2023-06-08T00:37:30.994Z,16.81
2023-06-08T00:40:04.720Z,16.70
2023-06-08T00:42:36.532Z,16.81
2023-06-08T00:45:07.079Z,16.79
2023-06-08T00:47:38.755Z,16.74
2023-06-08T00:50:10.644Z,16.73
2023-06-08T00:52:42.655Z,16.97
2023-06-08T00:55:14.628Z,17.06
2023-06-08T00:57:50.576Z,16.93
2023-06-08T01:00:21.713Z,16.83
2023-06-08T01:02:53.508Z,16.76
2023-06-08T01:05:25.688Z,16.62
2023-06-08T01:08:23.722Z,16.53
2023-06-08T01:11:30.438Z,16.53
2023-06-08T01:14:10.417Z,16.51
2023-06-08T01:16:46.880Z,16.42
2023-06-08T01:19:27.072Z,16.42
2023-06-08T01:22:14.798Z,16.35
2023-06-08T01:24:52.226Z,16.26
2023-06-08T01:27:23.119Z,16.22
2023-06-08T01:29:54.512Z,16.22
2023-06-08T01:32:27.373Z,16.18
2023-06-08T01:35:00.816Z,16.15
2023-06-08T01:37:44.687Z,16.16
2023-06-08T01:40:28.612Z,16.16
2023-06-08T01:43:01.589Z,16.12
2023-06-08T01:45:37.441Z,16.14
2023-06-08T01:48:10.065Z,16.06
2023-06-08T01:50:41.645Z,15.91
2023-06-08T01:53:13.524Z,15.88
2023-06-08T01:55:45.090Z,15.87
2023-06-08T01:58:16.368Z,15.83
2023-06-08T02:00:46.828Z,15.76
2023-06-08T02:03:17.441Z,15.74
2023-06-08T02:05:49.421Z,15.74
2023-06-08T02:08:20.111Z,15.71
2023-06-08T02:10:51.576Z,15.73
2023-06-08T02:13:22.272Z,15.70
2023-06-08T02:15:53.436Z,15.71
2023-06-08T02:18:23.839Z,15.63
2023-06-08T02:20:53.687Z,15.67
2023-06-08T02:23:24.757Z,15.70
2023-06-08T02:25:55.032Z,15.71
2023-06-08T02:28:26.323Z,15.61
2023-06-08T02:30:56.375Z,15.67
2023-06-08T02:33:26.228Z,15.64
2023-06-08T02:35:57.036Z,15.66
2023-06-08T02:38:29.213Z,15.67
2023-06-08T02:41:00.847Z,15.63
2023-06-08T02:43:32.111Z,15.60
2023-06-08T02:46:04.099Z,15.63
2023-06-08T02:48:35.245Z,15.60
2023-06-08T02:51:06.874Z,15.57
2023-06-08T02:53:39.564Z,15.57
2023-06-08T02:56:09.966Z,15.61
2023-06-08T02:58:44.871Z,15.60
2023-06-08T03:01:21.975Z,15.60
2023-06-08T03:04:15.055Z,15.60
2023-06-08T03:06:58.111Z,15.67
2023-06-08T03:09:32.571Z,15.67
2023-06-08T03:12:07.863Z,15.44
2023-06-08T03:14:40.881Z,15.32
2023-06-08T03:17:13.143Z,15.37
2023-06-08T03:19:49.262Z,15.44
2023-06-08T03:22:23.173Z,15.46
2023-06-08T03:25:02.740Z,15.44
2023-06-08T03:27:34.742Z,15.37
2023-06-08T03:30:13.542Z,15.26
2023-06-08T03:32:54.549Z,15.20
2023-06-08T03:35:31.053Z,15.25
2023-06-08T03:38:17.614Z,15.22
2023-06-08T03:40:48.337Z,15.25
2023-06-08T03:43:20.040Z,15.26
2023-06-08T03:45:51.962Z,15.20
2023-06-08T03:48:23.204Z,15.16
2023-06-08T03:50:54.219Z,15.18
2023-06-08T03:53:25.193Z,15.13
2023-06-08T03:55:55.656Z,15.12
2023-06-08T03:58:26.370Z,15.10
2023-06-08T04:00:58.519Z,15.15
2023-06-08T04:03:30.387Z,15.20
2023-06-08T04:06:01.489Z,15.19
2023-06-08T04:08:35.934Z,15.13
2023-06-08T04:11:06.628Z,15.08
2023-06-08T04:13:41.221Z,15.06
2023-06-08T04:16:16.739Z,15.09
2023-06-08T04:18:52.323Z,15.10
2023-06-08T04:21:27.459Z,15.06
2023-06-08T04:24:02.952Z,15.05
2023-06-08T04:26:37.180Z,15.09
2023-06-08T04:29:09.285Z,14.98
2023-06-08T04:31:42.481Z,15.05
2023-06-08T04:34:14.008Z,15.03
2023-06-08T04:36:45.425Z,15.08
2023-06-08T04:39:18.400Z,15.06
2023-06-08T04:41:49.954Z,14.95
2023-06-08T04:44:23.178Z,14.93
2023-06-08T04:46:59.118Z,14.93
2023-06-08T04:49:37.008Z,14.95
2023-06-08T04:52:10.831Z,14.93
2023-06-08T04:54:40.789Z,14.92
2023-06-08T04:57:11.515Z,14.88
2023-06-08T04:59:43.279Z,14.79
2023-06-08T05:02:15.247Z,14.77
2023-06-08T05:04:45.493Z,14.82
2023-06-08T05:07:15.977Z,14.79
2023-06-08T05:09:47.796Z,14.82
2023-06-08T05:12:17.900Z,14.84
2023-06-08T05:14:47.721Z,14.84
2023-06-08T05:17:20.101Z,14.81
2023-06-08T05:19:52.327Z,14.71
2023-06-08T05:22:24.165Z,14.81
2023-06-08T05:24:54.088Z,14.81
2023-06-08T05:27:23.890Z,14.75
2023-06-08T05:29:54.214Z,14.74
2023-06-08T05:32:24.451Z,14.71
2023-06-08T05:34:57.284Z,14.57
2023-06-08T05:37:27.900Z,14.61
2023-06-08T05:39:57.846Z,14.67
2023-06-08T05:42:28.795Z,14.67
2023-06-08T05:44:59.650Z,14.61
2023-06-08T05:47:33.099Z,14.68
2023-06-08T05:50:05.872Z,14.65
2023-06-08T05:52:36.928Z,14.60
2023-06-08T05:55:10.441Z,14.54
2023-06-08T05:57:42.721Z,14.44
2023-06-08T06:00:14.796Z,14.45
2023-06-08T06:02:46.300Z,14.47
2023-06-08T06:05:18.378Z,14.47
2023-06-08T06:07:48.557Z,14.56
2023-06-08T06:10:19.194Z,14.50
2023-06-08T06:12:50.115Z,14.50
2023-06-08T06:15:21.411Z,14.42
2023-06-08T06:17:53.147Z,14.41
2023-06-08T06:20:24.584Z,14.48
2023-06-08T06:22:54.769Z,14.54
2023-06-08T06:25:29.123Z,14.47
2023-06-08T06:28:00.375Z,14.50
2023-06-08T06:30:30.351Z,14.48
2023-06-08T06:33:00.205Z,14.54
2023-06-08T06:35:31.393Z,14.42
2023-06-08T06:38:01.789Z,14.38
2023-06-08T06:40:33.643Z,14.42
2023-06-08T06:43:03.806Z,14.47
2023-06-08T06:45:56.647Z,14.51
2023-06-08T06:48:27.525Z,14.48
2023-06-08T06:50:58.896Z,14.50
2023-06-08T06:53:32.207Z,14.51
2023-06-08T06:56:02.644Z,14.52
2023-06-08T06:58:33.436Z,14.52
2023-06-08T07:01:05.516Z,14.63
2023-06-08T07:03:36.742Z,14.69
2023-06-08T07:06:07.356Z,14.68
2023-06-08T07:08:39.022Z,14.65
2023-06-08T07:11:10.425Z,14.65
2023-06-08T07:13:40.362Z,14.60
2023-06-08T07:16:10.695Z,14.64
2023-06-08T07:18:42.176Z,14.72
2023-06-08T07:21:13.142Z,14.75
2023-06-08T07:24:32.376Z,14.78
2023-06-08T07:26:35.293Z,14.81
2023-06-08T07:29:05.844Z,14.81
2023-06-08T07:31:40.510Z,14.81
2023-06-08T07:34:11.661Z,14.84
2023-06-08T07:36:41.863Z,14.85
2023-06-08T07:39:12.255Z,14.78
2023-06-08T07:41:42.675Z,14.77
2023-06-08T07:44:14.434Z,14.72
2023-06-08T07:46:44.978Z,14.69
2023-06-08T07:49:15.152Z,14.71
2023-06-08T07:51:47.418Z,14.65
2023-06-08T07:54:21.906Z,14.63
2023-06-08T07:56:52.361Z,14.63
2023-06-08T07:59:22.381Z,14.63
2023-06-08T08:01:53.715Z,14.58
2023-06-08T08:04:24.705Z,14.57
2023-06-08T08:06:54.902Z,14.54
2023-06-08T08:09:24.694Z,14.52
2023-06-08T08:12:00.359Z,14.54
2023-06-08T08:14:31.644Z,14.52
2023-06-08T08:17:03.479Z,14.47
2023-06-08T08:19:33.641Z,14.44
2023-06-08T08:22:03.466Z,14.40
2023-06-08T08:24:35.434Z,14.41
2023-06-08T08:27:06.425Z,14.44
2023-06-08T08:29:36.738Z,14.48
2023-06-08T08:32:07.088Z,14.45
2023-06-08T08:34:38.568Z,14.38
2023-06-08T08:37:08.971Z,14.41
2023-06-08T08:39:40.737Z,14.41
2023-06-08T08:42:14.498Z,14.33
2023-06-08T08:44:45.606Z,14.38
2023-06-08T08:47:16.888Z,14.42
2023-06-08T08:49:55.984Z,14.42
2023-06-08T08:52:31.528Z,14.41
2023-06-08T08:55:08.101Z,14.42
2023-06-08T08:57:43.770Z,14.44
2023-06-08T09:00:17.000Z,14.30
2023-06-08T09:02:47.935Z,14.33
2023-06-08T09:05:19.167Z,14.33
2023-06-08T09:07:50.689Z,14.33
2023-06-08T09:10:27.391Z,14.31
2023-06-08T09:12:59.215Z,14.31
2023-06-08T09:15:37.311Z,14.30
2023-06-08T09:18:33.640Z,14.27
2023-06-08T09:21:30.161Z,14.24
2023-06-08T09:24:11.818Z,14.14
2023-06-08T09:26:53.413Z,14.19
2023-06-08T09:29:43.076Z,14.03
2023-06-08T09:32:16.623Z,13.96
2023-06-08T09:34:54.151Z,13.86
2023-06-08T09:37:30.465Z,13.87
2023-06-08T09:40:10.529Z,13.90
2023-06-08T09:42:47.415Z,13.92
2023-06-08T09:45:18.056Z,13.86
2023-06-08T09:47:48.723Z,13.86
2023-06-08T09:50:21.190Z,13.86
2023-06-08T09:52:53.900Z,13.87
2023-06-08T09:55:24.212Z,13.86
2023-06-08T09:57:56.377Z,13.71
2023-06-08T10:00:32.243Z,13.62
2023-06-08T10:03:33.771Z,13.65
2023-06-08T10:06:06.976Z,13.69
2023-06-08T10:08:41.106Z,13.71
2023-06-08T10:11:13.860Z,13.69
2023-06-08T10:13:45.644Z,13.68
2023-06-08T10:16:16.029Z,13.58
2023-06-08T10:18:47.878Z,13.58
2023-06-08T10:21:18.872Z,13.62
2023-06-08T10:23:49.942Z,13.66
2023-06-08T10:26:21.173Z,13.68
2023-06-08T10:29:22.289Z,13.76
2023-06-08T10:31:53.714Z,13.75
2023-06-08T10:34:25.130Z,13.80
2023-06-08T10:36:55.559Z,13.82
2023-06-08T10:39:25.737Z,13.85
2023-06-08T10:41:59.710Z,13.83
2023-06-08T10:44:37.074Z,13.96
2023-06-08T10:47:11.855Z,14.06
2023-06-08T10:49:47.046Z,14.20
2023-06-08T10:52:22.773Z,14.57
2023-06-08T10:55:08.122Z,15.37
2023-06-08T10:57:40.024Z,15.58
2023-06-08T11:00:29.529Z,15.57
2023-06-08T11:03:03.297Z,15.94
2023-06-08T11:05:39.032Z,16.53
2023-06-08T11:08:09.923Z,17.03
2023-06-08T11:10:42.140Z,16.65
2023-06-08T11:13:20.472Z,16.69
2023-06-08T11:15:51.488Z,17.36
2023-06-08T11:18:22.910Z,17.52
2023-06-08T11:20:53.417Z,17.81
2023-06-08T11:23:26.721Z,18.60
2023-06-08T11:25:58.121Z,19.50
2023-06-08T11:28:29.024Z,19.33
2023-06-08T11:31:02.011Z,20.79
2023-06-08T11:33:32.845Z,21.08
2023-06-08T11:36:03.916Z,21.76
2023-06-08T11:38:36.502Z,21.72
2023-06-08T11:41:06.781Z,23.40
2023-06-08T11:43:37.238Z,24.48
2023-06-08T11:46:09.057Z,25.15
2023-06-08T11:48:39.268Z,25.72
2023-06-08T11:51:10.211Z,26.41
2023-06-08T11:53:40.861Z,26.45
2023-06-08T11:56:11.980Z,26.24
2023-06-08T11:58:43.244Z,25.97
2023-06-08T12:01:16.425Z,25.88
2023-06-08T12:03:49.470Z,26.27
2023-06-08T12:06:26.808Z,26.29
2023-06-08T12:08:57.290Z,26.23
2023-06-08T12:11:30.172Z,26.61
2023-06-08T12:14:03.006Z,27.03
2023-06-08T12:16:45.569Z,27.09
2023-06-08T12:19:15.790Z,27.01
2023-06-08T12:21:45.652Z,27.32
2023-06-08T12:24:16.569Z,28.01
2023-06-08T12:26:48.160Z,28.63
2023-06-08T12:29:23.036Z,29.13
2023-06-08T12:31:54.234Z,28.99
2023-06-08T12:34:24.283Z,28.51
2023-06-08T12:36:55.559Z,28.90
2023-06-08T12:39:27.611Z,28.63
2023-06-08T12:42:00.173Z,28.69
2023-06-08T12:44:30.164Z,29.28
2023-06-08T12:47:01.708Z,29.13
2023-06-08T12:49:34.454Z,29.38
2023-06-08T12:52:04.516Z,28.99
2023-06-08T12:54:35.384Z,29.11
2023-06-08T12:57:06.145Z,28.89
2023-06-08T12:59:36.742Z,29.04
2023-06-08T13:02:07.159Z,29.00
2023-06-08T13:04:38.091Z,29.00
2023-06-08T13:07:08.217Z,28.38
2023-06-08T13:09:41.514Z,28.80
2023-06-08T13:12:12.583Z,29.13
2023-06-08T13:14:43.830Z,29.81
2023-06-08T13:17:16.179Z,29.52
2023-06-08T13:19:48.217Z,29.50
2023-06-08T13:22:20.046Z,29.61
2023-06-08T13:24:51.373Z,29.03
2023-06-08T13:27:21.380Z,29.66
2023-06-08T13:29:51.385Z,29.69
2023-06-08T13:32:22.884Z,29.52
2023-06-08T13:34:54.582Z,28.94
2023-06-08T13:37:26.376Z,29.27
2023-06-08T13:39:57.022Z,29.34
2023-06-08T13:42:31.400Z,29.89
2023-06-08T13:45:03.505Z,29.30
2023-06-08T13:47:41.068Z,29.52
2023-06-08T13:50:12.758Z,29.28
2023-06-08T13:52:43.715Z,29.50
2023-06-08T13:55:13.907Z,29.71
2023-06-08T13:57:44.882Z,29.34
2023-06-08T14:00:15.601Z,28.96
2023-06-08T14:02:49.911Z,28.93
2023-06-08T14:05:22.507Z,28.41
2023-06-08T14:07:53.150Z,28.55
2023-06-08T14:10:23.997Z,29.43
2023-06-08T14:12:54.510Z,28.79
2023-06-08T14:15:25.017Z,28.44
2023-06-08T14:17:58.796Z,28.25
2023-06-08T14:20:31.176Z,28.35
2023-06-08T14:23:01.796Z,28.80
2023-06-08T14:25:34.726Z,28.52
2023-06-08T14:28:09.189Z,29.47
2023-06-08T14:30:39.370Z,29.54
2023-06-08T14:33:13.461Z,30.09
2023-06-08T14:35:45.804Z,30.26
2023-06-08T14:38:17.523Z,28.94
2023-06-08T14:40:47.747Z,28.69
2023-06-08T14:43:17.816Z,28.94
2023-06-08T14:45:48.277Z,29.20
2023-06-08T14:48:19.935Z,29.07
2023-06-08T14:50:50.572Z,29.15
2023-06-08T14:53:21.303Z,28.96
2023-06-08T14:55:53.493Z,28.69
2023-06-08T14:58:25.393Z,28.11
2023-06-08T15:01:04.983Z,28.18
2023-06-08T15:03:35.300Z,28.15
2023-06-08T15:06:06.475Z,28.22
2023-06-08T15:08:39.050Z,28.08
2023-06-08T15:11:09.720Z,27.67
2023-06-08T15:13:45.601Z,28.05
2023-06-08T15:16:16.634Z,27.91
2023-06-08T15:18:48.170Z,28.07
2023-06-08T15:21:18.323Z,28.42
2023-06-08T15:23:49.118Z,28.36
2023-06-08T15:26:20.156Z,28.56
2023-06-08T15:28:52.232Z,28.52
2023-06-08T15:31:23.729Z,28.56
2023-06-08T15:33:55.820Z,28.31
2023-06-08T15:36:26.979Z,28.46
2023-06-08T15:38:58.882Z,28.83
2023-06-08T15:41:29.577Z,28.90
2023-06-08T15:43:59.959Z,28.60
2023-06-08T15:46:31.136Z,28.63
2023-06-08T15:49:01.681Z,28.87
2023-06-08T15:51:32.013Z,28.76
2023-06-08T15:54:09.224Z,28.55
2023-06-08T15:56:41.204Z,28.39
2023-06-08T15:59:12.682Z,28.76
2023-06-08T16:01:43.002Z,28.75
2023-06-08T16:04:12.789Z,28.89
2023-06-08T16:06:45.750Z,28.87
2023-06-08T16:09:17.040Z,28.90
2023-06-08T16:11:47.818Z,28.80
2023-06-08T16:14:17.679Z,29.06
2023-06-08T16:16:48.045Z,29.21
2023-06-08T16:19:18.310Z,29.17
2023-06-08T16:21:48.606Z,29.57
2023-06-08T16:24:30.861Z,29.76
2023-06-08T16:27:01.441Z,29.83
2023-06-08T16:29:32.234Z,29.81
2023-06-08T16:32:04.197Z,30.16
2023-06-08T16:34:35.003Z,30.14
2023-06-08T16:37:06.137Z,30.44
2023-06-08T16:39:36.960Z,30.90
2023-06-08T16:42:08.768Z,30.74
2023-06-08T16:44:40.697Z,30.72
2023-06-08T16:47:13.186Z,30.67
2023-06-08T16:49:43.587Z,30.75
2023-06-08T16:52:15.009Z,31.69
2023-06-08T16:54:46.172Z,31.96
2023-06-08T16:57:16.544Z,32.06
2023-06-08T16:59:46.389Z,31.91
2023-06-08T17:02:17.606Z,32.03
2023-06-08T17:04:49.952Z,32.00
2023-06-08T17:07:20.717Z,32.29
2023-06-08T17:09:50.534Z,32.27
2023-06-08T17:12:21.563Z,33.60
2023-06-08T17:14:52.217Z,33.65
2023-06-08T17:17:22.106Z,34.49
2023-06-08T17:19:54.059Z,34.43
2023-06-08T17:22:25.305Z,35.18
2023-06-08T17:24:59.748Z,36.03
2023-06-08T17:27:29.708Z,36.32
2023-06-08T17:30:00.806Z,35.85
2023-06-08T17:32:32.381Z,36.26
2023-06-08T17:35:04.681Z,36.55
2023-06-08T17:37:35.541Z,34.64
2023-06-08T17:40:05.572Z,31.08
2023-06-08T17:42:36.473Z,31.14
2023-06-08T17:45:08.879Z,31.16
2023-06-08T17:47:39.274Z,31.60
2023-06-08T17:50:09.680Z,31.14
2023-06-08T17:52:40.756Z,33.17
2023-06-08T17:55:13.922Z,33.16
2023-06-08T17:57:44.267Z,35.81
2023-06-08T18:00:14.924Z,36.64
2023-06-08T18:02:45.552Z,35.18
2023-06-08T18:05:15.797Z,34.19
2023-06-08T18:07:46.106Z,34.66
2023-06-08T18:10:17.699Z,33.65
2023-06-08T18:12:48.910Z,32.98
2023-06-08T18:15:19.809Z,32.10
2023-06-08T18:17:49.655Z,33.47
2023-06-08T18:20:20.844Z,33.82
2023-06-08T18:22:51.075Z,31.86
2023-06-08T18:25:22.518Z,30.98
2023-06-08T18:27:52.312Z,30.26
2023-06-08T18:30:25.110Z,32.32
2023-06-08T18:32:56.609Z,31.42
2023-06-08T18:35:28.190Z,31.73
2023-06-08T18:37:58.526Z,31.19
2023-06-08T18:40:28.815Z,30.22
2023-06-08T18:43:01.047Z,29.48
2023-06-08T18:45:32.071Z,29.85
2023-06-08T18:48:02.470Z,29.90
2023-06-08T18:50:33.589Z,29.33
2023-06-08T18:53:05.658Z,28.76
2023-06-08T18:55:40.979Z,28.49
2023-06-08T18:58:11.539Z,28.34
2023-06-08T19:00:41.514Z,28.48
2023-06-08T19:03:12.201Z,29.27
2023-06-08T19:05:49.383Z,29.48
2023-06-08T19:08:19.569Z,29.62
2023-06-08T19:10:49.510Z,28.72
2023-06-08T19:13:32.421Z,27.93
2023-06-08T19:16:11.751Z,27.22
2023-06-08T19:18:42.068Z,26.72
2023-06-08T19:21:12.391Z,26.33
2023-06-08T19:23:42.214Z,26.02
2023-06-08T19:26:13.393Z,25.78
2023-06-08T19:28:45.396Z,25.59
2023-06-08T19:31:16.137Z,25.46
2023-06-08T19:33:47.612Z,25.35
2023-06-08T19:36:17.496Z,25.31
2023-06-08T19:38:52.817Z,25.24
2023-06-08T19:41:24.916Z,25.06
2023-06-08T19:43:55.842Z,24.90
2023-06-08T19:46:28.350Z,24.73
2023-06-08T19:48:59.800Z,24.55
2023-06-08T19:51:30.485Z,24.35
2023-06-08T19:54:00.503Z,24.18
2023-06-08T19:56:30.648Z,23.97
2023-06-08T19:59:02.181Z,23.78
2023-06-08T20:01:35.248Z,23.53
2023-06-08T20:04:05.937Z,23.33
2023-06-08T20:06:38.072Z,23.09
2023-06-08T20:09:08.374Z,22.84
2023-06-08T20:11:39.338Z,22.68
2023-06-08T20:14:12.333Z,22.55
2023-06-08T20:16:43.189Z,22.40
2023-06-08T20:19:14.543Z,22.18
2023-06-08T20:21:44.861Z,22.06
2023-06-08T20:24:16.556Z,21.67
2023-06-08T20:26:48.814Z,21.54
2023-06-08T20:29:19.422Z,21.39
2023-06-08T20:31:50.200Z,21.32
2023-06-08T20:34:22.083Z,21.21
2023-06-08T20:36:52.168Z,21.11
2023-06-08T20:39:23.793Z,20.97
2023-06-08T20:41:56.268Z,20.91
2023-06-08T20:44:27.373Z,20.97
2023-06-08T20:46:57.810Z,20.86
2023-06-08T20:49:27.626Z,20.74
2023-06-08T20:51:59.524Z,20.65
2023-06-08T20:54:31.272Z,20.59
2023-06-08T20:57:02.508Z,20.55
2023-06-08T20:59:36.723Z,20.59
2023-06-08T21:02:18.020Z,20.52
2023-06-08T21:04:49.980Z,20.19
2023-06-08T21:07:22.652Z,19.98
2023-06-08T21:09:52.925Z,19.91
2023-06-08T21:12:24.335Z,19.79
2023-06-08T21:14:56.560Z,19.71
2023-06-08T21:17:27.055Z,19.66
2023-06-08T21:19:57.498Z,19.64
2023-06-08T21:22:27.342Z,19.60
2023-06-08T21:24:57.822Z,19.57
2023-06-08T21:27:28.006Z,19.56
2023-06-08T21:29:59.370Z,19.43
2023-06-08T21:32:29.526Z,19.34
2023-06-08T21:35:00.439Z,19.13
2023-06-08T21:37:31.285Z,19.02
2023-06-08T21:40:01.612Z,18.99
2023-06-08T21:42:32.277Z,19.02
2023-06-08T21:45:03.662Z,18.99
2023-06-08T21:47:34.958Z,18.92
2023-06-08T21:50:06.353Z,18.72
2023-06-08T21:52:37.322Z,18.65
2023-06-08T21:55:10.244Z,18.69
2023-06-08T21:57:41.922Z,18.67
2023-06-08T22:00:13.497Z,18.64
2023-06-08T22:02:43.257Z,18.58
2023-06-08T22:05:13.883Z,18.54
2023-06-08T22:07:44.276Z,18.50
2023-06-08T22:10:15.033Z,18.40
2023-06-08T22:12:47.390Z,18.38
2023-06-08T22:15:17.962Z,18.43
2023-06-08T22:17:49.414Z,18.38
2023-06-08T22:20:21.571Z,18.34
2023-06-08T22:22:52.769Z,18.37
2023-06-08T22:28:26.953Z,18.31
2023-06-08T22:30:57.564Z,18.21
2023-06-08T22:33:34.795Z,18.18
2023-06-08T22:36:05.199Z,18.14
2023-06-08T22:38:36.104Z,18.06
2023-06-08T22:41:07.194Z,17.97
2023-06-08T22:43:37.780Z,17.93
2023-06-08T22:46:07.678Z,17.90
2023-06-08T22:48:39.132Z,17.92
2023-06-08T22:51:11.402Z,17.87
2023-06-08T22:53:41.821Z,17.82
2023-06-08T22:56:12.179Z,17.72
2023-06-08T22:58:44.376Z,17.63
2023-06-08T23:01:16.215Z,17.65
2023-06-08T23:03:46.735Z,17.61
2023-06-08T23:06:16.976Z,17.65
2023-06-08T23:08:50.678Z,17.63
2023-06-08T23:11:27.090Z,17.63
2023-06-08T23:13:58.076Z,17.62
2023-06-08T23:16:28.148Z,17.58
2023-06-08T23:19:04.733Z,17.52
2023-06-08T23:21:37.861Z,17.56
2023-06-08T23:24:08.843Z,17.52
2023-06-08T23:26:39.032Z,17.52
2023-06-08T23:29:09.706Z,17.49
2023-06-08T23:31:41.030Z,17.51
2023-06-08T23:34:12.134Z,17.44
2023-06-08T23:36:47.213Z,17.44
2023-06-08T23:39:18.726Z,17.42
2023-06-08T23:41:50.048Z,17.44
2023-06-08T23:44:20.186Z,17.32
2023-06-08T23:46:50.033Z,17.45
2023-06-08T23:49:21.501Z,17.41
2023-06-08T23:51:51.868Z,17.44
2023-06-08T23:54:22.834Z,17.41
2023-06-08T23:56:52.653Z,17.51
2023-06-08T23:59:23.798Z,17.56
